sensor_id;sensor_type;location;lat;lon;timestamp;temperature;humidity
26909;DHT22;14477;51.038;4.588;2023-02-24T00:02:23;7.40;99.90
26909;DHT22;14477;51.038;4.588;2023-02-24T00:04:49;7.40;99.90
26909;DHT22;14477;51.038;4.588;2023-02-24T00:07:16;7.40;99.90
26909;DHT22;14477;51.038;4.588;2023-02-24T00:09:42;7.30;99.90
26909;DHT22;14477;51.038;4.588;2023-02-24T00:12:13;7.20;99.90
26909;DHT22;14477;51.038;4.588;2023-02-24T00:14:41;7.20;99.90
26909;DHT22;14477;51.038;4.588;2023-02-24T00:17:08;7.20;99.90
26909;DHT22;14477;51.038;4.588;2023-02-24T00:19:36;7.20;99.90
26909;DHT22;14477;51.038;4.588;2023-02-24T00:22:05;7.30;99.90
26909;DHT22;14477;51.038;4.588;2023-02-24T00:24:32;7.20;99.90
26909;DHT22;14477;51.038;4.588;2023-02-24T00:26:59;7.30;99.90
26909;DHT22;14477;51.038;4.588;2023-02-24T00:29:27;7.30;99.90
26909;DHT22;14477;51.038;4.588;2023-02-24T00:31:55;7.30;99.90
26909;DHT22;14477;51.038;4.588;2023-02-24T00:34:29;7.30;99.90
26909;DHT22;14477;51.038;4.588;2023-02-24T00:36:56;7.30;99.90
26909;DHT22;14477;51.038;4.588;2023-02-24T00:39:22;7.30;99.90
26909;DHT22;14477;51.038;4.588;2023-02-24T00:41:53;7.30;99.90
26909;DHT22;14477;51.038;4.588;2023-02-24T00:44:22;7.30;99.90
26909;DHT22;14477;51.038;4.588;2023-02-24T00:46:48;7.30;99.90
26909;DHT22;14477;51.038;4.588;2023-02-24T00:49:17;7.30;99.90
26909;DHT22;14477;51.038;4.588;2023-02-24T00:51:46;7.20;99.90
26909;DHT22;14477;51.038;4.588;2023-02-24T00:54:14;7.20;99.90
26909;DHT22;14477;51.038;4.588;2023-02-24T00:56:46;7.20;99.90
26909;DHT22;14477;51.038;4.588;2023-02-24T00:59:14;7.30;99.90
26909;DHT22;14477;51.038;4.588;2023-02-24T01:01:41;7.20;99.90
26909;DHT22;14477;51.038;4.588;2023-02-24T01:04:09;7.20;99.90
26909;DHT22;14477;51.038;4.588;2023-02-24T01:06:43;7.30;99.90
26909;DHT22;14477;51.038;4.588;2023-02-24T01:09:15;7.30;99.90
26909;DHT22;14477;51.038;4.588;2023-02-24T01:11:43;7.30;99.90
26909;DHT22;14477;51.038;4.588;2023-02-24T01:14:30;7.40;99.90
26909;DHT22;14477;51.038;4.588;2023-02-24T01:16:57;7.40;99.90
26909;DHT22;14477;51.038;4.588;2023-02-24T01:19:27;7.50;99.90
26909;DHT22;14477;51.038;4.588;2023-02-24T01:22:01;7.50;99.90
26909;DHT22;14477;51.038;4.588;2023-02-24T01:24:32;7.50;99.90
26909;DHT22;14477;51.038;4.588;2023-02-24T01:26:58;7.50;99.90
26909;DHT22;14477;51.038;4.588;2023-02-24T01:29:24;7.50;99.90
26909;DHT22;14477;51.038;4.588;2023-02-24T01:31:51;7.60;99.90
26909;DHT22;14477;51.038;4.588;2023-02-24T01:34:17;7.60;99.90
26909;DHT22;14477;51.038;4.588;2023-02-24T01:36:43;7.60;99.90
26909;DHT22;14477;51.038;4.588;2023-02-24T01:39:10;7.60;99.90
26909;DHT22;14477;51.038;4.588;2023-02-24T01:41:40;7.60;99.90
26909;DHT22;14477;51.038;4.588;2023-02-24T01:46:58;7.60;99.90
26909;DHT22;14477;51.038;4.588;2023-02-24T01:49:37;7.70;99.90
26909;DHT22;14477;51.038;4.588;2023-02-24T01:54:55;7.70;99.90
26909;DHT22;14477;51.038;4.588;2023-02-24T01:57:27;7.70;99.90
26909;DHT22;14477;51.038;4.588;2023-02-24T01:59:55;7.70;99.90
26909;DHT22;14477;51.038;4.588;2023-02-24T02:02:38;7.70;99.90
26909;DHT22;14477;51.038;4.588;2023-02-24T02:05:08;7.80;99.90
26909;DHT22;14477;51.038;4.588;2023-02-24T02:07:35;7.80;99.90
26909;DHT22;14477;51.038;4.588;2023-02-24T02:10:04;7.80;99.90
26909;DHT22;14477;51.038;4.588;2023-02-24T02:12:33;7.80;99.90
26909;DHT22;14477;51.038;4.588;2023-02-24T02:15:14;7.80;99.90
26909;DHT22;14477;51.038;4.588;2023-02-24T02:32:07;7.90;99.90
26909;DHT22;14477;51.038;4.588;2023-02-24T02:34:59;7.80;99.90
26909;DHT22;14477;51.038;4.588;2023-02-24T02:37:40;7.90;99.90
26909;DHT22;14477;51.038;4.588;2023-02-24T02:45:43;7.80;99.90
26909;DHT22;14477;51.038;4.588;2023-02-24T02:48:29;7.80;99.90
26909;DHT22;14477;51.038;4.588;2023-02-24T02:51:07;7.90;99.90
26909;DHT22;14477;51.038;4.588;2023-02-24T02:53:49;7.80;99.90
26909;DHT22;14477;51.038;4.588;2023-02-24T02:58:48;7.80;99.90
26909;DHT22;14477;51.038;4.588;2023-02-24T03:01:18;7.80;99.90
26909;DHT22;14477;51.038;4.588;2023-02-24T03:03:52;7.80;99.90
26909;DHT22;14477;51.038;4.588;2023-02-24T03:06:32;7.80;99.90
26909;DHT22;14477;51.038;4.588;2023-02-24T03:09:07;7.80;99.90
26909;DHT22;14477;51.038;4.588;2023-02-24T03:11:41;7.90;99.90
26909;DHT22;14477;51.038;4.588;2023-02-24T03:14:11;7.80;99.90
26909;DHT22;14477;51.038;4.588;2023-02-24T03:16:40;7.80;99.90
26909;DHT22;14477;51.038;4.588;2023-02-24T03:19:09;7.90;99.90
26909;DHT22;14477;51.038;4.588;2023-02-24T03:21:41;7.80;99.90
26909;DHT22;14477;51.038;4.588;2023-02-24T03:24:07;7.90;99.90
26909;DHT22;14477;51.038;4.588;2023-02-24T03:26:50;7.80;99.90
26909;DHT22;14477;51.038;4.588;2023-02-24T03:32:01;7.90;99.90
26909;DHT22;14477;51.038;4.588;2023-02-24T03:34:52;7.80;99.90
26909;DHT22;14477;51.038;4.588;2023-02-24T03:37:20;7.90;99.90
26909;DHT22;14477;51.038;4.588;2023-02-24T03:40:00;7.80;99.90
26909;DHT22;14477;51.038;4.588;2023-02-24T03:42:33;7.90;99.90
26909;DHT22;14477;51.038;4.588;2023-02-24T03:44:59;7.80;99.90
26909;DHT22;14477;51.038;4.588;2023-02-24T03:47:26;7.80;99.90
26909;DHT22;14477;51.038;4.588;2023-02-24T03:49:52;7.80;99.90
26909;DHT22;14477;51.038;4.588;2023-02-24T03:55:32;7.80;99.90
26909;DHT22;14477;51.038;4.588;2023-02-24T04:08:59;7.80;99.90
26909;DHT22;14477;51.038;4.588;2023-02-24T04:11:58;7.80;99.90
26909;DHT22;14477;51.038;4.588;2023-02-24T04:16:57;7.80;99.90
26909;DHT22;14477;51.038;4.588;2023-02-24T04:19:28;7.80;99.90
26909;DHT22;14477;51.038;4.588;2023-02-24T04:21:56;7.80;99.90
26909;DHT22;14477;51.038;4.588;2023-02-24T04:24:26;7.80;99.90
26909;DHT22;14477;51.038;4.588;2023-02-24T04:26:56;7.70;99.90
26909;DHT22;14477;51.038;4.588;2023-02-24T04:29:25;7.80;99.90
26909;DHT22;14477;51.038;4.588;2023-02-24T04:31:57;7.80;99.90
26909;DHT22;14477;51.038;4.588;2023-02-24T04:34:25;7.80;99.90
26909;DHT22;14477;51.038;4.588;2023-02-24T04:36:56;7.80;99.90
26909;DHT22;14477;51.038;4.588;2023-02-24T04:39:24;7.80;99.90
26909;DHT22;14477;51.038;4.588;2023-02-24T04:41:50;7.80;99.90
26909;DHT22;14477;51.038;4.588;2023-02-24T04:44:21;7.80;99.90
26909;DHT22;14477;51.038;4.588;2023-02-24T04:46:48;7.70;99.90
26909;DHT22;14477;51.038;4.588;2023-02-24T04:49:15;7.80;99.90
26909;DHT22;14477;51.038;4.588;2023-02-24T04:51:42;7.80;99.90
26909;DHT22;14477;51.038;4.588;2023-02-24T04:54:10;7.80;99.90
26909;DHT22;14477;51.038;4.588;2023-02-24T04:56:40;7.80;99.90
26909;DHT22;14477;51.038;4.588;2023-02-24T04:59:06;7.80;99.90
26909;DHT22;14477;51.038;4.588;2023-02-24T05:01:36;7.80;99.90
26909;DHT22;14477;51.038;4.588;2023-02-24T05:04:05;7.80;99.90
26909;DHT22;14477;51.038;4.588;2023-02-24T05:06:31;7.80;99.90
26909;DHT22;14477;51.038;4.588;2023-02-24T05:08:57;7.80;99.90
26909;DHT22;14477;51.038;4.588;2023-02-24T05:11:23;7.80;99.90
26909;DHT22;14477;51.038;4.588;2023-02-24T05:13:49;7.70;99.90
26909;DHT22;14477;51.038;4.588;2023-02-24T05:16:16;7.70;99.90
26909;DHT22;14477;51.038;4.588;2023-02-24T05:18:44;7.70;99.90
26909;DHT22;14477;51.038;4.588;2023-02-24T05:21:13;7.70;99.90
26909;DHT22;14477;51.038;4.588;2023-02-24T05:23:57;7.60;99.90
26909;DHT22;14477;51.038;4.588;2023-02-24T05:26:24;7.60;99.90
26909;DHT22;14477;51.038;4.588;2023-02-24T05:28:52;7.50;99.90
26909;DHT22;14477;51.038;4.588;2023-02-24T05:31:21;7.50;99.90
26909;DHT22;14477;51.038;4.588;2023-02-24T05:33:50;7.40;99.90
26909;DHT22;14477;51.038;4.588;2023-02-24T05:36:19;7.30;99.90
26909;DHT22;14477;51.038;4.588;2023-02-24T05:38:47;7.20;99.90
26909;DHT22;14477;51.038;4.588;2023-02-24T05:41:15;7.10;99.90
26909;DHT22;14477;51.038;4.588;2023-02-24T05:43:43;7.10;99.90
26909;DHT22;14477;51.038;4.588;2023-02-24T05:46:14;7.00;99.90
26909;DHT22;14477;51.038;4.588;2023-02-24T05:48:40;6.90;99.90
26909;DHT22;14477;51.038;4.588;2023-02-24T05:51:06;6.90;99.90
26909;DHT22;14477;51.038;4.588;2023-02-24T05:53:33;6.80;99.90
26909;DHT22;14477;51.038;4.588;2023-02-24T05:56:00;6.70;99.90
26909;DHT22;14477;51.038;4.588;2023-02-24T05:58:28;6.60;99.90
26909;DHT22;14477;51.038;4.588;2023-02-24T06:00:54;6.60;99.90
26909;DHT22;14477;51.038;4.588;2023-02-24T06:03:21;6.50;99.90
26909;DHT22;14477;51.038;4.588;2023-02-24T06:05:56;6.50;99.90
26909;DHT22;14477;51.038;4.588;2023-02-24T06:08:31;6.40;99.90
26909;DHT22;14477;51.038;4.588;2023-02-24T06:11:07;6.40;99.90
26909;DHT22;14477;51.038;4.588;2023-02-24T06:13:38;6.30;99.90
26909;DHT22;14477;51.038;4.588;2023-02-24T06:16:06;6.30;99.90
26909;DHT22;14477;51.038;4.588;2023-02-24T06:18:32;6.20;99.90
26909;DHT22;14477;51.038;4.588;2023-02-24T06:21:02;6.10;99.90
26909;DHT22;14477;51.038;4.588;2023-02-24T06:23:28;6.10;99.90
26909;DHT22;14477;51.038;4.588;2023-02-24T06:25:54;6.10;99.90
26909;DHT22;14477;51.038;4.588;2023-02-24T06:28:23;6.00;99.90
26909;DHT22;14477;51.038;4.588;2023-02-24T06:30:49;6.10;99.90
26909;DHT22;14477;51.038;4.588;2023-02-24T06:33:15;6.10;99.90
26909;DHT22;14477;51.038;4.588;2023-02-24T06:35:41;6.10;99.90
26909;DHT22;14477;51.038;4.588;2023-02-24T06:38:07;6.10;99.90
26909;DHT22;14477;51.038;4.588;2023-02-24T06:40:32;6.10;99.90
26909;DHT22;14477;51.038;4.588;2023-02-24T06:42:58;6.10;99.90
26909;DHT22;14477;51.038;4.588;2023-02-24T06:45:24;6.10;99.90
26909;DHT22;14477;51.038;4.588;2023-02-24T06:47:51;6.10;99.90
26909;DHT22;14477;51.038;4.588;2023-02-24T06:50:18;6.10;99.90
26909;DHT22;14477;51.038;4.588;2023-02-24T06:52:45;6.20;99.90
26909;DHT22;14477;51.038;4.588;2023-02-24T06:55:11;6.10;99.90
26909;DHT22;14477;51.038;4.588;2023-02-24T06:57:59;6.10;99.90
26909;DHT22;14477;51.038;4.588;2023-02-24T07:00:32;6.10;99.90
26909;DHT22;14477;51.038;4.588;2023-02-24T07:03:09;6.20;99.90
26909;DHT22;14477;51.038;4.588;2023-02-24T07:05:48;6.10;99.90
26909;DHT22;14477;51.038;4.588;2023-02-24T07:08:20;6.10;99.90
26909;DHT22;14477;51.038;4.588;2023-02-24T07:10:57;6.10;99.90
26909;DHT22;14477;51.038;4.588;2023-02-24T07:13:24;6.10;99.90
26909;DHT22;14477;51.038;4.588;2023-02-24T07:15:53;6.10;99.90
26909;DHT22;14477;51.038;4.588;2023-02-24T07:18:19;6.10;99.90
26909;DHT22;14477;51.038;4.588;2023-02-24T07:20:45;6.10;99.90
26909;DHT22;14477;51.038;4.588;2023-02-24T07:23:15;6.00;99.90
26909;DHT22;14477;51.038;4.588;2023-02-24T07:25:42;6.10;99.90
26909;DHT22;14477;51.038;4.588;2023-02-24T07:28:14;6.10;99.90
26909;DHT22;14477;51.038;4.588;2023-02-24T07:30:41;6.10;99.90
26909;DHT22;14477;51.038;4.588;2023-02-24T07:33:07;6.10;99.90
26909;DHT22;14477;51.038;4.588;2023-02-24T07:35:34;6.10;99.90
26909;DHT22;14477;51.038;4.588;2023-02-24T07:38:04;6.20;99.90
26909;DHT22;14477;51.038;4.588;2023-02-24T07:40:32;6.20;99.90
26909;DHT22;14477;51.038;4.588;2023-02-24T07:42:59;6.30;99.90
26909;DHT22;14477;51.038;4.588;2023-02-24T07:45:26;6.30;99.90
26909;DHT22;14477;51.038;4.588;2023-02-24T07:47:52;6.40;99.90
26909;DHT22;14477;51.038;4.588;2023-02-24T07:50:17;6.40;99.90
26909;DHT22;14477;51.038;4.588;2023-02-24T07:52:45;6.50;99.90
26909;DHT22;14477;51.038;4.588;2023-02-24T07:55:13;6.60;99.90
26909;DHT22;14477;51.038;4.588;2023-02-24T07:57:40;6.70;99.90
26909;DHT22;14477;51.038;4.588;2023-02-24T08:00:13;6.70;99.90
26909;DHT22;14477;51.038;4.588;2023-02-24T08:02:49;6.80;99.90
26909;DHT22;14477;51.038;4.588;2023-02-24T08:05:17;6.90;99.90
26909;DHT22;14477;51.038;4.588;2023-02-24T08:07:45;7.00;99.90
26909;DHT22;14477;51.038;4.588;2023-02-24T08:10:15;7.00;99.90
26909;DHT22;14477;51.038;4.588;2023-02-24T08:12:53;7.10;99.90
26909;DHT22;14477;51.038;4.588;2023-02-24T08:15:25;7.20;99.90
26909;DHT22;14477;51.038;4.588;2023-02-24T08:17:55;7.20;99.90
26909;DHT22;14477;51.038;4.588;2023-02-24T08:20:24;7.30;99.90
26909;DHT22;14477;51.038;4.588;2023-02-24T08:22:52;7.30;99.90
26909;DHT22;14477;51.038;4.588;2023-02-24T08:25:28;7.40;99.90
26909;DHT22;14477;51.038;4.588;2023-02-24T08:28:06;7.40;99.90
26909;DHT22;14477;51.038;4.588;2023-02-24T08:30:38;7.50;99.90
26909;DHT22;14477;51.038;4.588;2023-02-24T08:33:10;7.50;99.90
26909;DHT22;14477;51.038;4.588;2023-02-24T08:35:38;7.50;99.90
26909;DHT22;14477;51.038;4.588;2023-02-24T08:38:17;7.60;99.90
26909;DHT22;14477;51.038;4.588;2023-02-24T08:40:53;7.70;99.90
26909;DHT22;14477;51.038;4.588;2023-02-24T08:43:28;7.70;99.90
26909;DHT22;14477;51.038;4.588;2023-02-24T08:48:42;7.90;99.90
26909;DHT22;14477;51.038;4.588;2023-02-24T08:51:20;8.00;99.90
26909;DHT22;14477;51.038;4.588;2023-02-24T08:53:53;8.20;99.90
26909;DHT22;14477;51.038;4.588;2023-02-24T08:56:26;8.30;99.90
26909;DHT22;14477;51.038;4.588;2023-02-24T08:58:57;8.40;99.90
26909;DHT22;14477;51.038;4.588;2023-02-24T09:01:34;8.50;99.90
26909;DHT22;14477;51.038;4.588;2023-02-24T09:04:07;8.60;99.90
26909;DHT22;14477;51.038;4.588;2023-02-24T09:09:01;8.90;99.90
26909;DHT22;14477;51.038;4.588;2023-02-24T09:11:44;9.00;99.90
26909;DHT22;14477;51.038;4.588;2023-02-24T09:14:13;9.20;99.90
26909;DHT22;14477;51.038;4.588;2023-02-24T09:16:43;9.40;99.90
26909;DHT22;14477;51.038;4.588;2023-02-24T09:19:47;9.70;99.90
26909;DHT22;14477;51.038;4.588;2023-02-24T09:22:18;9.90;99.90
26909;DHT22;14477;51.038;4.588;2023-02-24T09:25:02;10.00;99.90
26909;DHT22;14477;51.038;4.588;2023-02-24T09:28:02;10.00;99.90
26909;DHT22;14477;51.038;4.588;2023-02-24T09:30:33;10.10;99.90
26909;DHT22;14477;51.038;4.588;2023-02-24T09:35:49;10.10;99.90
26909;DHT22;14477;51.038;4.588;2023-02-24T09:38:17;10.10;99.90
26909;DHT22;14477;51.038;4.588;2023-02-24T09:40:45;10.20;99.90
26909;DHT22;14477;51.038;4.588;2023-02-24T09:43:22;10.20;99.90
26909;DHT22;14477;51.038;4.588;2023-02-24T09:45:54;10.30;99.90
26909;DHT22;14477;51.038;4.588;2023-02-24T09:48:37;10.30;99.90
26909;DHT22;14477;51.038;4.588;2023-02-24T09:51:09;10.30;99.90
26909;DHT22;14477;51.038;4.588;2023-02-24T09:53:46;10.40;99.90
26909;DHT22;14477;51.038;4.588;2023-02-24T09:59:07;10.30;99.90
26909;DHT22;14477;51.038;4.588;2023-02-24T10:01:46;10.20;99.90
26909;DHT22;14477;51.038;4.588;2023-02-24T10:04:36;10.20;99.90
26909;DHT22;14477;51.038;4.588;2023-02-24T10:09:58;10.10;99.90
26909;DHT22;14477;51.038;4.588;2023-02-24T10:12:50;10.10;99.90
26909;DHT22;14477;51.038;4.588;2023-02-24T10:15:20;10.00;99.90
26909;DHT22;14477;51.038;4.588;2023-02-24T10:18:45;9.90;99.90
26909;DHT22;14477;51.038;4.588;2023-02-24T10:21:39;9.90;99.90
26909;DHT22;14477;51.038;4.588;2023-02-24T10:24:40;9.90;99.90
26909;DHT22;14477;51.038;4.588;2023-02-24T10:27:30;9.80;99.90
26909;DHT22;14477;51.038;4.588;2023-02-24T10:35:40;9.70;99.90
26909;DHT22;14477;51.038;4.588;2023-02-24T10:38:07;9.80;99.90
26909;DHT22;14477;51.038;4.588;2023-02-24T10:40:53;9.80;99.90
26909;DHT22;14477;51.038;4.588;2023-02-24T10:43:24;9.80;99.90
26909;DHT22;14477;51.038;4.588;2023-02-24T10:45:58;9.80;99.90
26909;DHT22;14477;51.038;4.588;2023-02-24T10:48:32;9.90;99.90
26909;DHT22;14477;51.038;4.588;2023-02-24T10:51:12;10.00;99.90
26909;DHT22;14477;51.038;4.588;2023-02-24T10:53:46;10.00;99.90
26909;DHT22;14477;51.038;4.588;2023-02-24T10:56:19;10.10;99.90
26909;DHT22;14477;51.038;4.588;2023-02-24T10:59:12;10.10;99.90
26909;DHT22;14477;51.038;4.588;2023-02-24T11:02:18;10.20;99.90
26909;DHT22;14477;51.038;4.588;2023-02-24T11:04:55;10.20;99.90
26909;DHT22;14477;51.038;4.588;2023-02-24T11:07:24;10.30;99.90
26909;DHT22;14477;51.038;4.588;2023-02-24T11:10:08;10.30;99.90
26909;DHT22;14477;51.038;4.588;2023-02-24T11:12:46;10.40;99.90
26909;DHT22;14477;51.038;4.588;2023-02-24T11:15:34;10.40;99.90
26909;DHT22;14477;51.038;4.588;2023-02-24T11:18:24;10.50;99.90
26909;DHT22;14477;51.038;4.588;2023-02-24T11:21:03;10.60;99.90
26909;DHT22;14477;51.038;4.588;2023-02-24T11:23:34;10.60;99.90
26909;DHT22;14477;51.038;4.588;2023-02-24T11:26:22;10.70;99.90
26909;DHT22;14477;51.038;4.588;2023-02-24T11:29:25;10.80;99.90
26909;DHT22;14477;51.038;4.588;2023-02-24T11:34:34;11.00;99.90
26909;DHT22;14477;51.038;4.588;2023-02-24T11:42:41;11.20;99.90
26909;DHT22;14477;51.038;4.588;2023-02-24T11:47:58;11.30;99.90
26909;DHT22;14477;51.038;4.588;2023-02-24T11:50:36;11.30;99.90
26909;DHT22;14477;51.038;4.588;2023-02-24T12:01:30;11.50;99.90
26909;DHT22;14477;51.038;4.588;2023-02-24T12:04:17;11.50;99.90
26909;DHT22;14477;51.038;4.588;2023-02-24T12:09:20;11.60;99.90
26909;DHT22;14477;51.038;4.588;2023-02-24T12:14:51;11.80;99.90
26909;DHT22;14477;51.038;4.588;2023-02-24T12:17:37;11.80;99.90
26909;DHT22;14477;51.038;4.588;2023-02-24T12:20:32;12.00;99.90
26909;DHT22;14477;51.038;4.588;2023-02-24T12:23:27;12.10;99.90
26909;DHT22;14477;51.038;4.588;2023-02-24T12:26:03;12.20;99.90
26909;DHT22;14477;51.038;4.588;2023-02-24T12:28:46;12.20;99.90
26909;DHT22;14477;51.038;4.588;2023-02-24T12:34:09;12.20;99.90
26909;DHT22;14477;51.038;4.588;2023-02-24T12:37:31;12.10;99.90
26909;DHT22;14477;51.038;4.588;2023-02-24T12:45:52;11.80;99.90
26909;DHT22;14477;51.038;4.588;2023-02-24T12:59:13;11.50;99.90
26909;DHT22;14477;51.038;4.588;2023-02-24T13:02:38;11.50;99.90
26909;DHT22;14477;51.038;4.588;2023-02-24T13:12:42;11.30;99.90
26909;DHT22;14477;51.038;4.588;2023-02-24T13:15:24;11.30;99.90
26909;DHT22;14477;51.038;4.588;2023-02-24T13:17:51;11.30;99.90
26909;DHT22;14477;51.038;4.588;2023-02-24T13:20:44;11.30;99.90
26909;DHT22;14477;51.038;4.588;2023-02-24T13:23:20;11.30;99.90
26909;DHT22;14477;51.038;4.588;2023-02-24T13:25:51;11.30;99.90
26909;DHT22;14477;51.038;4.588;2023-02-24T13:28:25;11.30;99.90
26909;DHT22;14477;51.038;4.588;2023-02-24T13:30:59;11.30;99.90
26909;DHT22;14477;51.038;4.588;2023-02-24T13:33:33;11.30;99.90
26909;DHT22;14477;51.038;4.588;2023-02-24T13:49:53;11.10;99.90
26909;DHT22;14477;51.038;4.588;2023-02-24T13:55:14;11.00;99.90
26909;DHT22;14477;51.038;4.588;2023-02-24T13:58:01;10.90;99.90
26909;DHT22;14477;51.038;4.588;2023-02-24T14:03:26;10.80;99.90
26909;DHT22;14477;51.038;4.588;2023-02-24T14:05:52;10.80;99.90
26909;DHT22;14477;51.038;4.588;2023-02-24T14:08:46;10.70;99.90
26909;DHT22;14477;51.038;4.588;2023-02-24T14:11:14;10.70;99.90
26909;DHT22;14477;51.038;4.588;2023-02-24T14:13:45;10.70;99.90
26909;DHT22;14477;51.038;4.588;2023-02-24T14:16:22;10.70;99.90
26909;DHT22;14477;51.038;4.588;2023-02-24T14:19:02;10.70;99.90
26909;DHT22;14477;51.038;4.588;2023-02-24T14:21:30;10.70;99.90
26909;DHT22;14477;51.038;4.588;2023-02-24T14:23:57;10.60;99.90
26909;DHT22;14477;51.038;4.588;2023-02-24T14:26:23;10.60;99.90
26909;DHT22;14477;51.038;4.588;2023-02-24T14:28:57;10.50;99.90
26909;DHT22;14477;51.038;4.588;2023-02-24T14:31:27;10.40;99.90
26909;DHT22;14477;51.038;4.588;2023-02-24T14:34:05;10.40;99.90
26909;DHT22;14477;51.038;4.588;2023-02-24T14:36:40;10.30;99.90
26909;DHT22;14477;51.038;4.588;2023-02-24T14:41:41;10.20;99.90
26909;DHT22;14477;51.038;4.588;2023-02-24T14:44:17;10.20;99.90
26909;DHT22;14477;51.038;4.588;2023-02-24T14:47:03;10.10;99.90
26909;DHT22;14477;51.038;4.588;2023-02-24T14:49:33;10.10;99.90
26909;DHT22;14477;51.038;4.588;2023-02-24T14:57:16;10.10;99.90
26909;DHT22;14477;51.038;4.588;2023-02-24T14:59:45;10.10;99.90
26909;DHT22;14477;51.038;4.588;2023-02-24T15:02:16;10.10;99.90
26909;DHT22;14477;51.038;4.588;2023-02-24T15:04:44;10.00;99.90
26909;DHT22;14477;51.038;4.588;2023-02-24T15:07:17;10.10;99.90
26909;DHT22;14477;51.038;4.588;2023-02-24T15:09:44;10.00;99.90
26909;DHT22;14477;51.038;4.588;2023-02-24T15:12:30;10.10;99.90
26909;DHT22;14477;51.038;4.588;2023-02-24T15:15:01;10.00;99.90
26909;DHT22;14477;51.038;4.588;2023-02-24T15:17:29;10.10;99.90
26909;DHT22;14477;51.038;4.588;2023-02-24T15:19:55;10.10;99.90
26909;DHT22;14477;51.038;4.588;2023-02-24T15:22:24;10.10;99.90
26909;DHT22;14477;51.038;4.588;2023-02-24T15:27:49;10.10;99.90
26909;DHT22;14477;51.038;4.588;2023-02-24T15:33:20;10.10;99.90
26909;DHT22;14477;51.038;4.588;2023-02-24T15:35:49;10.20;99.90
26909;DHT22;14477;51.038;4.588;2023-02-24T15:40:58;10.20;99.90
26909;DHT22;14477;51.038;4.588;2023-02-24T15:48:45;10.20;99.90
26909;DHT22;14477;51.038;4.588;2023-02-24T15:53:55;10.20;99.90
26909;DHT22;14477;51.038;4.588;2023-02-24T15:56:21;10.20;99.90
26909;DHT22;14477;51.038;4.588;2023-02-24T15:58:46;10.20;99.90
26909;DHT22;14477;51.038;4.588;2023-02-24T16:01:12;10.20;99.90
26909;DHT22;14477;51.038;4.588;2023-02-24T16:03:39;10.20;99.90
26909;DHT22;14477;51.038;4.588;2023-02-24T16:06:05;10.20;99.90
26909;DHT22;14477;51.038;4.588;2023-02-24T16:08:32;10.20;99.90
26909;DHT22;14477;51.038;4.588;2023-02-24T16:10:58;10.20;99.90
26909;DHT22;14477;51.038;4.588;2023-02-24T16:13:24;10.20;99.90
26909;DHT22;14477;51.038;4.588;2023-02-24T16:15:51;10.20;99.90
26909;DHT22;14477;51.038;4.588;2023-02-24T16:18:22;10.20;99.90
26909;DHT22;14477;51.038;4.588;2023-02-24T16:20:50;10.20;99.90
26909;DHT22;14477;51.038;4.588;2023-02-24T16:23:20;10.20;99.90
26909;DHT22;14477;51.038;4.588;2023-02-24T16:25:53;10.20;99.90
26909;DHT22;14477;51.038;4.588;2023-02-24T16:28:20;10.30;99.90
26909;DHT22;14477;51.038;4.588;2023-02-24T16:30:48;10.30;99.90
26909;DHT22;14477;51.038;4.588;2023-02-24T16:33:15;10.30;99.90
26909;DHT22;14477;51.038;4.588;2023-02-24T16:35:42;10.30;99.90
26909;DHT22;14477;51.038;4.588;2023-02-24T16:38:16;10.30;99.90
26909;DHT22;14477;51.038;4.588;2023-02-24T16:40:44;10.30;99.90
26909;DHT22;14477;51.038;4.588;2023-02-24T16:43:11;10.30;99.90
26909;DHT22;14477;51.038;4.588;2023-02-24T16:45:38;10.30;99.90
26909;DHT22;14477;51.038;4.588;2023-02-24T16:48:06;10.30;99.90
26909;DHT22;14477;51.038;4.588;2023-02-24T16:50:38;10.30;99.90
26909;DHT22;14477;51.038;4.588;2023-02-24T16:53:06;10.30;99.90
26909;DHT22;14477;51.038;4.588;2023-02-24T16:55:32;10.20;99.90
26909;DHT22;14477;51.038;4.588;2023-02-24T16:57:57;10.20;99.90
26909;DHT22;14477;51.038;4.588;2023-02-24T17:00:23;10.10;99.90
26909;DHT22;14477;51.038;4.588;2023-02-24T17:02:49;10.00;99.90
26909;DHT22;14477;51.038;4.588;2023-02-24T17:05:18;10.00;99.90
26909;DHT22;14477;51.038;4.588;2023-02-24T17:07:54;9.90;99.90
26909;DHT22;14477;51.038;4.588;2023-02-24T17:10:22;9.90;99.90
26909;DHT22;14477;51.038;4.588;2023-02-24T17:12:48;9.90;99.90
26909;DHT22;14477;51.038;4.588;2023-02-24T17:15:18;9.80;99.90
26909;DHT22;14477;51.038;4.588;2023-02-24T17:17:44;9.80;99.90
26909;DHT22;14477;51.038;4.588;2023-02-24T17:20:12;9.80;99.90
26909;DHT22;14477;51.038;4.588;2023-02-24T17:22:41;9.70;99.90
26909;DHT22;14477;51.038;4.588;2023-02-24T17:25:26;9.70;99.90
26909;DHT22;14477;51.038;4.588;2023-02-24T17:27:53;9.70;99.90
26909;DHT22;14477;51.038;4.588;2023-02-24T17:30:31;9.70;99.90
26909;DHT22;14477;51.038;4.588;2023-02-24T17:32:58;9.70;99.90
26909;DHT22;14477;51.038;4.588;2023-02-24T17:35:25;9.70;99.90
26909;DHT22;14477;51.038;4.588;2023-02-24T17:37:51;9.60;99.90
26909;DHT22;14477;51.038;4.588;2023-02-24T17:40:17;9.60;99.90
26909;DHT22;14477;51.038;4.588;2023-02-24T17:42:43;9.50;99.90
26909;DHT22;14477;51.038;4.588;2023-02-24T17:45:10;9.50;99.90
26909;DHT22;14477;51.038;4.588;2023-02-24T17:47:37;9.40;99.90
26909;DHT22;14477;51.038;4.588;2023-02-24T17:50:04;9.30;99.90
26909;DHT22;14477;51.038;4.588;2023-02-24T17:52:30;9.30;99.90
26909;DHT22;14477;51.038;4.588;2023-02-24T17:54:56;9.20;99.90
26909;DHT22;14477;51.038;4.588;2023-02-24T17:57:23;9.20;99.90
26909;DHT22;14477;51.038;4.588;2023-02-24T17:59:48;9.10;99.90
26909;DHT22;14477;51.038;4.588;2023-02-24T18:02:15;9.10;99.90
26909;DHT22;14477;51.038;4.588;2023-02-24T18:04:41;9.00;99.90
26909;DHT22;14477;51.038;4.588;2023-02-24T18:07:09;9.00;99.90
26909;DHT22;14477;51.038;4.588;2023-02-24T18:09:35;8.90;99.90
26909;DHT22;14477;51.038;4.588;2023-02-24T18:12:02;8.90;99.90
26909;DHT22;14477;51.038;4.588;2023-02-24T18:14:28;8.80;99.90
26909;DHT22;14477;51.038;4.588;2023-02-24T18:16:53;8.80;99.90
26909;DHT22;14477;51.038;4.588;2023-02-24T18:19:20;8.80;99.90
26909;DHT22;14477;51.038;4.588;2023-02-24T18:21:45;8.80;99.90
26909;DHT22;14477;51.038;4.588;2023-02-24T18:24:11;8.80;99.90
26909;DHT22;14477;51.038;4.588;2023-02-24T18:26:37;8.80;99.90
26909;DHT22;14477;51.038;4.588;2023-02-24T18:29:04;8.90;99.90
26909;DHT22;14477;51.038;4.588;2023-02-24T18:31:31;8.90;99.90
26909;DHT22;14477;51.038;4.588;2023-02-24T18:33:58;8.90;99.90
26909;DHT22;14477;51.038;4.588;2023-02-24T18:36:24;9.00;99.90
26909;DHT22;14477;51.038;4.588;2023-02-24T18:38:50;9.00;99.90
26909;DHT22;14477;51.038;4.588;2023-02-24T18:41:19;9.00;99.90
26909;DHT22;14477;51.038;4.588;2023-02-24T18:43:50;9.10;99.90
26909;DHT22;14477;51.038;4.588;2023-02-24T18:46:17;9.10;99.90
26909;DHT22;14477;51.038;4.588;2023-02-24T18:48:44;9.10;99.90
26909;DHT22;14477;51.038;4.588;2023-02-24T18:51:16;9.10;99.90
26909;DHT22;14477;51.038;4.588;2023-02-24T18:53:42;9.00;99.90